Stations météo

réclame
Mon MeteoGroup
Lekeitio, Espagne (8024): Température de l'air & dewpoint: 16.01.2018 21:00:00 - 22.01.2018 21:00:00 (CET)Lekeitio, Espagne (8024): Vitesse du vent & gusts: 16.01.2018 21:00:00 - 22.01.2018 21:00:00 (CET)Lekeitio, Espagne (8024): Direction du vent: 16.01.2018 21:00:00 - 22.01.2018 21:00:00 (CET)Lekeitio, Espagne (8024): Quantités de précipitations: 16.01.2018 21:00:00 - 22.01.2018 21:00:00 (CET)
Date & Time tt [°C] td [°C] ff [km/h] ff [knt] fx [km/h] fx [knt] dd rr [mm]
22.01.2018 21:00:00 - - - - - - - -
22.01.2018 20:00:00 12,7 12,5 14 7 24 13 WNW 0,4
22.01.2018 19:00:00 12,8 12,6 11 6 24 13 WNW -
22.01.2018 18:00:00 13,1 12,9 14 7 26 14 W 0,0
22.01.2018 17:00:00 13,2 13,0 9 5 29 16 W 0,0
22.01.2018 16:00:00 14,0 13,8 15 8 34 18 SW 0,0
22.01.2018 15:00:00 14,9 13,6 14 8 34 19 SW 0,0
22.01.2018 14:00:00 15,4 13,1 14 8 40 22 W 0,0
22.01.2018 13:00:00 15,2 12,9 3 2 31 17 SW -
22.01.2018 12:00:00 14,5 12,4 10 5 40 22 SW 0,0
22.01.2018 11:00:00 14,0 12,7 15 8 28 15 SSW 0,0
22.01.2018 10:00:00 13,3 12,7 15 8 27 15 SSW 0,0
22.01.2018 09:00:00 13,4 12,6 10 5 26 14 WSW 0,0
22.01.2018 08:00:00 13,5 13,2 6 3 16 8 W 0,0
22.01.2018 07:00:00 13,7 13,4 5 3 18 10 SW -
22.01.2018 06:00:00 13,4 13,2 12 7 18 10 SSW 0,0
22.01.2018 05:00:00 13,7 13,5 13 7 19 10 SSW 0,0
22.01.2018 04:00:00 14,3 13,8 8 4 22 12 W 0,0
22.01.2018 03:00:00 13,8 13,6 6 3 18 10 SW 0,0
22.01.2018 02:00:00 14,0 13,8 6 3 18 10 WSW 0,0
22.01.2018 01:00:00 14,2 14,0 10 5 25 13 W -
22.01.2018 00:00:00 14,4 14,2 10 5 21 12 W 0,0
21.01.2018 23:00:00 14,3 14,1 5 3 13 7 WSW 0,0
21.01.2018 22:00:00 14,1 13,9 3 2 14 8 SSW 0,0
21.01.2018 21:00:00 14,3 14,1 5 3 23 13 W 0,0
21.01.2018 20:00:00 14,4 14,1 12 6 27 15 W 0,0
21.01.2018 19:00:00 14,4 14,1 17 9 42 23 WNW -
21.01.2018 18:00:00 14,5 14,2 19 10 41 22 WNW 0,0
21.01.2018 17:00:00 14,7 14,4 32 17 70 38 WNW 0,0
21.01.2018 16:00:00 14,4 14,1 36 20 71 39 WNW 0,0
21.01.2018 15:00:00 13,8 13,6 34 18 40 22 NW 0,0
21.01.2018 14:00:00 13,7 13,5 29 15 37 20 NW 0,0
21.01.2018 13:00:00 14,8 14,3 28 15 68 37 WNW -
21.01.2018 12:00:00 14,5 14,3 26 14 71 39 W 0,0
21.01.2018 11:00:00 13,9 13,7 22 12 44 24 WNW 0,0
21.01.2018 10:00:00 13,3 13,1 26 14 49 26 WNW 0,0
21.01.2018 09:00:00 13,1 12,9 27 15 69 38 W 0,0
21.01.2018 08:00:00 13,4 13,2 29 16 59 32 W 0,0
21.01.2018 07:00:00 13,1 12,9 28 15 82 44 WNW -
21.01.2018 06:00:00 13,5 13,3 52 28 76 41 WNW 0,0
21.01.2018 05:00:00 13,6 13,4 58 32 82 44 WNW 0,0
21.01.2018 04:00:00 13,4 13,2 45 25 76 41 WNW 0,1
21.01.2018 03:00:00 13,0 12,8 39 21 76 41 WNW 0,0
21.01.2018 02:00:00 12,9 12,7 32 17 68 37 WNW 0,0
21.01.2018 01:00:00 - - - - - - - -
21.01.2018 00:00:00 13,1 12,9 28 15 55 30 WNW 0,1
20.01.2018 23:00:00 13,3 13,1 27 14 68 37 WNW 0,0
20.01.2018 22:00:00 14,1 13,9 32 17 61 33 WNW 0,0
20.01.2018 21:00:00 14,5 14,0 36 20 66 36 WNW 0,0
20.01.2018 20:00:00 14,3 14,0 27 15 67 36 WNW 0,0
20.01.2018 19:00:00 14,9 13,9 38 20 71 38 WNW -
20.01.2018 18:00:00 14,8 13,7 48 26 71 39 WNW 0,0
20.01.2018 17:00:00 15,2 13,2 19 10 42 23 W 0,0
20.01.2018 16:00:00 15,2 13,2 22 12 57 31 W 0,0
20.01.2018 15:00:00 14,6 12,8 27 15 68 37 W 0,0
20.01.2018 14:00:00 14,9 10,9 24 13 59 32 WSW 0,0
20.01.2018 13:00:00 14,6 9,0 26 14 72 39 W -
20.01.2018 12:00:00 14,5 7,3 20 11 61 33 WSW 0,0
20.01.2018 11:00:00 13,5 6,4 15 8 52 28 SW 0,0
20.01.2018 10:00:00 12,2 6,7 15 8 39 21 W 0,0
20.01.2018 09:00:00 11,9 6,4 9 5 33 18 WSW 0,0
20.01.2018 08:00:00 11,6 6,9 14 8 36 20 SSW 0,0
20.01.2018 07:00:00 11,9 7,2 12 7 34 18 SW -
20.01.2018 06:00:00 11,4 8,3 16 8 29 16 SSW 0,0
20.01.2018 05:00:00 10,8 9,2 16 9 37 20 SSW 0,0
20.01.2018 04:00:00 11,1 10,0 17 9 - - SSW -
20.01.2018 03:00:00 11,0 10,7 10 5 33 18 SW 0,0
20.01.2018 02:00:00 10,4 10,1 8 4 20 11 SW 0,0
20.01.2018 01:00:00 - - - - - - - -
20.01.2018 00:00:00 11,7 11,2 22 12 39 21 WNW 0,0
19.01.2018 23:00:00 11,8 11,3 34 18 71 39 WNW 0,0
19.01.2018 22:00:00 11,6 11,4 29 15 50 27 WNW 0,0
19.01.2018 21:00:00 11,7 11,5 37 20 55 30 NW 0,0
19.01.2018 20:00:00 11,4 11,2 36 19 66 36 NW 0,0
19.01.2018 19:00:00 10,4 10,2 58 32 72 39 NW -
19.01.2018 18:00:00 12,1 11,6 24 13 47 25 WNW 0,0
19.01.2018 17:00:00 11,7 11,1 15 8 47 26 W 0,0
19.01.2018 16:00:00 11,7 11,1 16 9 38 21 W 0,0
19.01.2018 15:00:00 11,2 10,7 16 9 39 21 W 0,0
19.01.2018 14:00:00 11,9 10,5 24 13 46 25 WNW 0,0
19.01.2018 13:00:00 11,8 11,6 14 8 30 16 W -
19.01.2018 12:00:00 11,1 10,9 18 10 39 21 WNW 0,0
19.01.2018 11:00:00 11,6 11,4 14 8 27 14 W 0,0
19.01.2018 10:00:00 11,2 11,0 18 10 43 23 W 0,5
19.01.2018 09:00:00 11,8 11,6 14 8 27 15 W 0,2
19.01.2018 08:00:00 12,2 12,0 13 7 30 16 W 0,0
19.01.2018 07:00:00 11,8 11,5 11 6 32 18 W -
19.01.2018 06:00:00 11,5 11,3 17 9 72 39 W 0,0
19.01.2018 05:00:00 12,5 12,3 12 7 44 24 WSW 0,1
19.01.2018 04:00:00 12,5 12,3 15 8 34 18 W 0,0
19.01.2018 03:00:00 12,5 12,3 13 7 32 18 W 0,0
19.01.2018 02:00:00 12,3 12,1 11 6 35 19 W 0,0
19.01.2018 01:00:00 12,4 12,2 13 7 37 20 W -
19.01.2018 00:00:00 12,1 11,9 13 7 40 22 W 0,0
18.01.2018 23:00:00 12,3 12,1 13 7 38 20 W 0,0
18.01.2018 22:00:00 11,9 11,6 10 5 31 17 SW 0,0
18.01.2018 21:00:00 11,9 11,0 9 5 26 14 W 0,0
18.01.2018 20:00:00 12,1 10,7 11 6 30 16 W 0,0
18.01.2018 19:00:00 11,3 10,4 10 6 24 13 SSW -
18.01.2018 18:00:00 11,4 11,1 14 8 71 38 W 0,0
18.01.2018 17:00:00 11,6 11,4 33 18 71 38 WNW 0,0
18.01.2018 16:00:00 11,9 11,3 29 16 37 20 WNW 0,0
18.01.2018 15:00:00 12,5 11,2 10 6 18 10 NW 0,0
18.01.2018 14:00:00 12,0 9,6 9 5 18 10 W 0,0
18.01.2018 13:00:00 11,5 9,9 6 3 20 11 W -
18.01.2018 12:00:00 11,3 9,0 9 5 23 12 WSW 0,0
18.01.2018 11:00:00 10,9 9,0 11 6 24 13 W 0,0
18.01.2018 10:00:00 9,5 7,9 10 5 20 11 SSW 0,0
18.01.2018 09:00:00 9,1 7,2 15 8 21 12 SSW 0,0
18.01.2018 08:00:00 9,3 7,3 8 5 22 12 SSW 0,0
18.01.2018 07:00:00 10,7 7,6 10 5 22 12 W -
18.01.2018 06:00:00 9,1 6,5 10 5 22 12 SSW 0,0
18.01.2018 05:00:00 9,5 6,6 16 9 26 14 SSW 0,0
18.01.2018 04:00:00 9,8 6,7 22 12 27 15 SSW 0,0
18.01.2018 03:00:00 9,7 7,3 16 8 29 16 SSW 0,0
18.01.2018 02:00:00 10,0 7,6 18 10 28 15 S 0,0
18.01.2018 01:00:00 10,0 8,1 16 8 23 12 S -
18.01.2018 00:00:00 10,3 8,7 10 6 22 12 SSW 0,0
17.01.2018 23:00:00 10,2 8,8 13 7 32 17 SSW 0,0
17.01.2018 22:00:00 10,6 10,3 11 6 22 12 SSW 0,0
17.01.2018 21:00:00 10,8 10,0 5 3 16 9 WSW 0,0
17.01.2018 20:00:00 11,0 10,1 6 4 37 20 SW 0,0
17.01.2018 19:00:00 11,4 10,8 27 15 42 23 WNW -
17.01.2018 18:00:00 11,3 10,1 22 12 53 29 WNW 0,0
17.01.2018 17:00:00 11,5 10,4 36 20 72 39 WNW 0,0
17.01.2018 16:00:00 11,4 10,8 42 23 53 29 WNW 2,8
17.01.2018 15:00:00 10,8 9,7 21 11 76 41 WNW 0,0
17.01.2018 14:00:00 11,5 10,7 48 26 68 37 WNW 0,0
17.01.2018 13:00:00 11,6 10,8 46 25 60 32 WNW -
17.01.2018 12:00:00 10,8 10,6 34 18 85 46 WNW 0,0
17.01.2018 11:00:00 11,8 9,7 19 10 62 34 WNW 0,0
17.01.2018 10:00:00 12,0 9,4 51 27 74 40 NW 0,0
17.01.2018 09:00:00 11,4 10,9 42 23 94 51 WNW 0,0
17.01.2018 08:00:00 10,6 10,3 44 24 85 46 WNW 0,1
17.01.2018 07:00:00 11,6 11,1 29 16 100 54 WNW -
17.01.2018 06:00:00 12,6 10,3 38 21 72 39 WNW 0,0
17.01.2018 05:00:00 12,1 9,5 40 22 87 47 WNW 0,0
17.01.2018 04:00:00 12,2 10,8 37 20 101 54 WNW 0,0
17.01.2018 03:00:00 13,1 12,0 55 30 106 58 WNW 0,0
17.01.2018 02:00:00 13,0 12,5 34 18 80 43 WNW 0,0
17.01.2018 01:00:00 12,9 12,7 44 24 106 57 WNW -
17.01.2018 00:00:00 14,1 13,3 32 17 70 38 WNW 0,0
16.01.2018 23:00:00 13,7 13,5 39 21 66 36 WNW 0,3
16.01.2018 22:00:00 14,8 14,0 20 11 39 21 WNW 0,0
16.01.2018 21:00:00 15,3 13,2 16 9 40 22 W 0,0

tt = Température de l'air
td = dewpoint
ff = Vitesse du vent
fx = gusts
dd = Direction du vent
rr = Quantités de précipitations

stations d'obs. à proximité